Wales, AK

5:46 PM AKDT on October 22, 2014 (GMT -0800)
Tin City LRRS | Change Station
CLOSE
Current Station
Airport
Location: Tin City,
Elevation: 272 ft
Nearby Weather Stations
Active Advisory: High Surf Advisory

Elev 272 ft 65.56 °N, 167.92 °W | Updated 51 minutes ago

Overcast
Overcast
28 °F
Feels Like 22 °F
N
6
Wind Variable Wind from NNW

Today
High -- | Low -- °F
--% Chance of Precip.
Yesterday
High -- | Low -- °F
Precip. -- in
10:30 AM 7:20 PM
Waning Crescent, 1% visible
Pressure 29.88 in
Visibility 10.0 miles
Clouds Overcast 1900 ft
Windchill 22 °F
Dew Point 23 °F
Humidity 79%
Rainfall 0.00 in
Snow Depth Not available.
UV 0 out of 12
Pollen Not available.
Air Quality Not available.
Flu Activity Sporadic
METAR PATC 230055Z AUTO 34005KT 10SM OVC019 M02/M05 A2986 RMK AO2 SLP116 T10201052

More Conditions Fewer Conditions

Pressure 29.88 in
Visibility 10.0 miles
Clouds Overcast 1900 ft
Windchill 22 °F
Dew Point 23 °F
Humidity 79%
Rainfall 0.00 in
Snow Depth Not available.
UV 0 out of 12
Pollen Not available.
Air Quality Not available.
Flu Activity Sporadic
METAR PATC 230055Z AUTO 34005KT 10SM OVC019 M02/M05 A2986 RMK AO2 SLP116 T10201052

More Conditions Fewer Conditions

10-Day Weather Forecast

Almanac

Astronomy

Oct. 22, 2014 Rise Set
Actual Time 10:30 AM AKDT 7:20 PM AKDT
Civil Twilight 9:37 AM AKDT 8:13 PM AKDT
Nautical Twilight 8:38 AM AKDT 9:12 PM AKDT
Astronomical Twilight 7:39 AM AKDT 10:10 PM AKDT
Moon 9:01 AM AKDT (10/22) 7:09 PM AKDT (10/22)
Length of Visible Light 10h 36m
Length of Day
8h 49m
Tomorrow will be 7m 0s shorter.
Waning Crescent, 1% of the Moon is Illuminated
Today
Waning Crescent
Oct 23
New
Oct 30
First Quarter
Nov 6
Full
Nov 14
Last Quarter

Today's Extremes

State Highs State Lows

Community

WunderPhotos

Upload Photos

1,764,108 photos uploaded!

Nearby

Snow Depth

Station Depth Elevation
Rocky Point 3 in 500 ft
Gobblers Knob 1 in 2030 ft
Coldfoot 5 in 1040 ft
Atigun Pass 15 in 4800 ft
Imnaviat Creek 22 in 3050 ft

Earthquake Activity

City Distance Mag. Time & Date
No recent earthquake activity has been reported nearby.
Minimum magnitude displayed is 2.5.

Coastal Water Temperatures

Place Temperature
No Stations Reporting

Nearby Weather Stations